Time;durP1;ratioP1;P1;durP2;ratioP2;P2;SDS_P1;SDS_P2;PMS_P1;PMS_P2;Temp;Humidity;BMP_temperature;BMP_pressure;BME280_temperature;BME280_humidity;BME280_pressure;Samples;Min_cycle;Max_cycle;Signal;HPM_P1;HPM_P2
2022/02/15 00:00:32;;;;;;;6.47;1.65;;;11.70;73.80;;;;;;5045411;28;20109;-74
2022/02/15 00:02:57;;;;;;;7.10;2.30;;;11.70;73.80;;;;;;5045714;28;20032;-73
2022/02/15 00:05:23;;;;;;;4.60;1.42;;;11.70;73.80;;;;;;5027633;28;20091;-74
2022/02/15 00:07:49;;;;;;;4.40;1.40;;;11.70;73.90;;;;;;5027529;28;20029;-74
2022/02/15 00:10:14;;;;;;;5.28;1.63;;;11.80;73.80;;;;;;5025884;28;20025;-74
2022/02/15 00:12:40;;;;;;;6.55;1.73;;;11.80;74.00;;;;;;5025579;28;20029;-74
2022/02/15 00:15:07;;;;;;;6.20;1.67;;;11.70;73.80;;;;;;5024488;28;20071;-74
2022/02/15 00:17:37;;;;;;;5.32;1.70;;;11.70;73.80;;;;;;5024249;28;20040;-74
2022/02/15 00:20:04;;;;;;;6.07;1.73;;;11.80;73.80;;;;;;5026520;28;20026;-74
2022/02/15 00:22:30;;;;;;;4.70;1.70;;;11.70;73.80;;;;;;5041930;28;20032;-75
2022/02/15 00:24:56;;;;;;;4.32;1.40;;;11.70;73.90;;;;;;5049080;28;20021;-74
2022/02/15 00:27:21;;;;;;;5.45;1.45;;;11.90;74.10;;;;;;5031279;28;20029;-74
2022/02/15 00:29:46;;;;;;;3.80;1.50;;;11.70;73.90;;;;;;5063931;28;20040;-74
2022/02/15 00:32:12;;;;;;;5.95;1.90;;;11.70;74.00;;;;;;5049197;28;20124;-75
2022/02/15 00:34:37;;;;;;;5.13;1.80;;;11.70;74.00;;;;;;5048639;28;20079;-74
2022/02/15 00:37:03;;;;;;;4.43;1.65;;;11.70;74.00;;;;;;5031240;28;20053;-75
2022/02/15 00:39:29;;;;;;;3.40;1.60;;;11.70;74.00;;;;;;5048390;28;20029;-75
2022/02/15 00:41:54;;;;;;;5.63;1.67;;;11.70;74.10;;;;;;5048990;28;20394;-74
2022/02/15 00:44:20;;;;;;;4.63;1.63;;;11.70;74.10;;;;;;5064151;28;20075;-73
2022/02/15 00:46:46;;;;;;;4.93;1.50;;;11.70;74.00;;;;;;5048946;28;20033;-75
2022/02/15 00:49:11;;;;;;;5.50;1.77;;;11.80;74.10;;;;;;5030551;28;20025;-74
2022/02/15 00:51:37;;;;;;;4.40;1.50;;;11.70;74.20;;;;;;5049274;28;20059;-75
2022/02/15 00:54:04;;;;;;;4.47;1.60;;;11.70;74.00;;;;;;5030504;28;20028;-74
2022/02/15 00:56:29;;;;;;;4.93;1.65;;;11.70;74.10;;;;;;5030785;28;20025;-75
2022/02/15 00:58:55;;;;;;;4.13;1.50;;;11.70;74.10;;;;;;5031768;28;20021;-75
2022/02/15 01:01:21;;;;;;;6.60;2.10;;;11.70;74.00;;;;;;5047854;28;20477;-74
2022/02/15 01:03:47;;;;;;;6.80;1.92;;;11.70;74.20;;;;;;5048014;28;20578;-74
2022/02/15 01:06:13;;;;;;;4.82;1.70;;;11.70;74.10;;;;;;5035513;28;20124;-75
2022/02/15 01:08:39;;;;;;;5.70;1.73;;;11.70;74.30;;;;;;5040296;28;20048;-73
2022/02/15 01:11:05;;;;;;;5.47;1.98;;;11.50;74.10;;;;;;5030347;28;20037;-74
2022/02/15 01:13:31;;;;;;;5.90;1.88;;;11.70;74.20;;;;;;5030463;28;20025;-75
2022/02/15 01:15:56;;;;;;;5.90;1.60;;;11.70;74.20;;;;;;5048435;28;20029;-74
2022/02/15 01:18:26;;;;;;;5.47;1.92;;;11.70;74.20;;;;;;5030335;28;20025;-74
2022/02/15 01:20:52;;;;;;;5.07;1.80;;;11.70;74.20;;;;;;5029678;28;20082;-75
2022/02/15 01:23:17;;;;;;;5.22;1.73;;;11.80;74.30;;;;;;5040646;28;20878;-75
2022/02/15 01:25:43;;;;;;;4.05;1.70;;;11.80;74.30;;;;;;5047805;28;20028;-79
2022/02/15 01:28:08;;;;;;;5.05;1.70;;;11.70;74.30;;;;;;5030070;28;20021;-75
2022/02/15 01:30:34;;;;;;;6.22;1.80;;;11.70;74.30;;;;;;5028627;28;20029;-74
2022/02/15 01:33:00;;;;;;;6.32;1.75;;;11.70;74.30;;;;;;5030047;28;20136;-74
2022/02/15 01:35:26;;;;;;;6.43;1.83;;;11.80;74.40;;;;;;5030035;28;20120;-74
2022/02/15 01:37:51;;;;;;;5.45;1.77;;;11.70;74.30;;;;;;5030016;28;20395;-74
2022/02/15 01:40:17;;;;;;;4.95;2.00;;;11.70;74.40;;;;;;5029870;28;20436;-74
2022/02/15 01:42:42;;;;;;;4.78;1.90;;;11.70;74.50;;;;;;5029986;28;20021;-75
2022/02/15 01:45:12;;;;;;;5.50;2.13;;;11.70;74.30;;;;;;5047822;28;20036;-75
2022/02/15 01:47:38;;;;;;;5.63;1.90;;;11.70;74.40;;;;;;5029362;28;20120;-74
2022/02/15 01:50:05;;;;;;;5.65;2.10;;;11.70;74.50;;;;;;5029623;28;20051;-75
2022/02/15 01:52:30;;;;;;;5.93;2.58;;;11.70;74.50;;;;;;5029813;28;20059;-76
2022/02/15 01:54:58;;;;;;;5.00;2.20;;;11.70;74.50;;;;;;5047114;28;20021;-74
2022/02/15 01:57:25;;;;;;;5.25;2.20;;;11.70;74.50;;;;;;5029986;28;20028;-75
2022/02/15 01:59:54;;;;;;;5.57;2.03;;;11.70;74.50;;;;;;5046809;28;20108;-74
2022/02/15 02:02:21;;;;;;;4.07;2.00;;;11.70;74.60;;;;;;5029143;28;20053;-74
2022/02/15 02:07:31;;;;;;;7.72;3.00;;;11.70;74.60;;;;;;5046934;28;20032;-75
2022/02/15 02:09:57;;;;;;;5.18;2.20;;;11.70;74.50;;;;;;5028764;28;20032;-74
2022/02/15 02:12:23;;;;;;;4.90;2.22;;;11.70;74.60;;;;;;5042993;28;20028;-74
2022/02/15 02:14:59;;;;;;;6.93;2.22;;;11.70;74.40;;;;;;5046596;28;20084;-74
2022/02/15 02:17:25;;;;;;;7.97;2.70;;;11.70;74.60;;;;;;5037024;28;20025;-75
2022/02/15 02:19:53;;;;;;;5.28;2.40;;;11.70;74.60;;;;;;5028556;28;20081;-74
2022/02/15 02:22:21;;;;;;;6.97;2.60;;;11.70;74.70;;;;;;5029158;28;20545;-74
2022/02/15 02:24:46;;;;;;;4.82;2.50;;;11.70;74.60;;;;;;5029101;28;20029;-75
2022/02/15 02:27:15;;;;;;;5.63;2.42;;;11.70;74.60;;;;;;5028909;28;20029;-75
2022/02/15 02:29:41;;;;;;;6.07;2.72;;;11.70;74.70;;;;;;5028553;28;20063;-72
2022/02/15 02:32:07;;;;;;;5.57;2.80;;;11.70;74.80;;;;;;5029053;28;20052;-74
2022/02/15 02:34:33;;;;;;;5.65;2.40;;;11.70;74.90;;;;;;5047327;28;20033;-74
2022/02/15 02:36:59;;;;;;;6.00;2.55;;;11.60;74.80;;;;;;5050731;28;20040;-74
2022/02/15 02:39:25;;;;;;;5.38;2.60;;;11.70;74.90;;;;;;5046232;28;20478;-74
2022/02/15 02:41:51;;;;;;;7.70;2.70;;;11.70;74.80;;;;;;5046451;28;20024;-75
2022/02/15 02:44:16;;;;;;;6.22;2.80;;;11.70;74.80;;;;;;5042928;28;20025;-74
2022/02/15 02:46:41;;;;;;;5.93;2.63;;;11.70;74.80;;;;;;5043500;28;20473;-75
2022/02/15 02:49:07;;;;;;;7.63;3.42;;;11.70;74.90;;;;;;5027941;28;20029;-75
2022/02/15 02:51:33;;;;;;;7.32;2.97;;;11.70;74.80;;;;;;5028788;28;20083;-75
2022/02/15 02:53:58;;;;;;;8.85;3.38;;;11.70;74.80;;;;;;5046422;28;20104;-73
2022/02/15 02:56:24;;;;;;;9.00;3.25;;;11.70;74.90;;;;;;5028594;28;20137;-75
2022/02/15 02:58:50;;;;;;;6.20;3.00;;;11.70;74.90;;;;;;5027844;28;20035;-74
2022/02/15 03:01:15;;;;;;;6.47;3.30;;;11.70;74.90;;;;;;5034403;28;20024;-74
2022/02/15 03:03:41;;;;;;;6.22;3.17;;;11.70;75.00;;;;;;5046206;28;20447;-73
2022/02/15 03:06:07;;;;;;;6.22;2.92;;;11.70;75.00;;;;;;5042856;28;20541;-74
2022/02/15 03:08:33;;;;;;;7.22;3.42;;;11.70;75.00;;;;;;5036866;28;20025;-74
2022/02/15 03:10:59;;;;;;;9.18;3.63;;;11.70;74.90;;;;;;5045999;28;20024;-75
2022/02/15 03:13:25;;;;;;;10.25;3.10;;;11.70;75.00;;;;;;5022535;28;20021;-74
2022/02/15 03:15:51;;;;;;;8.25;3.67;;;11.70;74.90;;;;;;5030250;28;20025;-75
2022/02/15 03:18:16;;;;;;;7.05;3.20;;;11.70;75.00;;;;;;5045411;28;20120;-74
2022/02/15 03:20:42;;;;;;;7.90;3.83;;;11.70;75.00;;;;;;5044672;28;20051;-75
2022/02/15 03:23:07;;;;;;;8.13;3.30;;;11.70;75.10;;;;;;5045737;28;20032;-74
2022/02/15 03:25:33;;;;;;;8.45;3.75;;;11.60;75.00;;;;;;5044279;28;20031;-75
2022/02/15 03:27:58;;;;;;;8.43;3.47;;;11.60;75.00;;;;;;5041677;28;20028;-75
2022/02/15 03:30:24;;;;;;;8.32;3.92;;;11.70;75.10;;;;;;5045061;28;20049;-75
2022/02/15 03:32:49;;;;;;;8.10;3.85;;;11.70;75.20;;;;;;5045251;28;20559;-74
2022/02/15 03:35:16;;;;;;;8.20;4.15;;;11.60;75.10;;;;;;5042888;28;20044;-75
2022/02/15 03:37:42;;;;;;;7.30;3.83;;;11.60;75.10;;;;;;5035653;28;20071;-75
2022/02/15 03:40:08;;;;;;;13.63;4.53;;;11.60;75.20;;;;;;5035880;28;20049;-75
2022/02/15 03:45:18;;;;;;;7.55;3.80;;;11.70;75.20;;;;;;5039472;28;20051;-75
2022/02/15 03:47:44;;;;;;;6.47;3.72;;;11.70;75.20;;;;;;5027558;28;20032;-74
2022/02/15 03:50:10;;;;;;;7.43;3.90;;;11.60;75.20;;;;;;5035731;28;20051;-74
2022/02/15 03:52:35;;;;;;;8.07;4.07;;;11.70;75.20;;;;;;5037825;28;20025;-74
2022/02/15 03:55:01;;;;;;;7.68;3.95;;;11.70;75.30;;;;;;5048010;28;20028;-74
2022/02/15 03:57:28;;;;;;;11.55;4.68;;;11.60;75.20;;;;;;5049743;28;20028;-74
2022/02/15 03:59:54;;;;;;;11.70;4.50;;;11.60;75.20;;;;;;5048685;28;20040;-75
2022/02/15 04:02:19;;;;;;;25.70;4.82;;;11.60;75.20;;;;;;5048859;28;20029;-74
2022/02/15 04:04:45;;;;;;;15.70;5.20;;;11.60;75.20;;;;;;5047815;28;20390;-75
2022/02/15 04:07:10;;;;;;;12.82;4.90;;;11.60;75.20;;;;;;5045835;28;20067;-74
2022/02/15 04:09:36;;;;;;;11.27;4.65;;;11.70;75.30;;;;;;5042360;28;20078;-75
2022/02/15 04:12:01;;;;;;;10.15;4.45;;;11.60;75.20;;;;;;5031319;28;20029;-74
2022/02/15 04:14:27;;;;;;;10.77;4.30;;;11.70;75.20;;;;;;5032541;28;20119;-74
2022/02/15 04:16:53;;;;;;;10.23;4.50;;;11.70;75.20;;;;;;5048827;28;20131;-74
2022/02/15 04:19:18;;;;;;;9.65;4.40;;;11.60;75.20;;;;;;5049031;28;20021;-74
2022/02/15 04:21:44;;;;;;;12.18;4.68;;;11.70;75.20;;;;;;5043235;28;20033;-74
2022/02/15 04:24:09;;;;;;;7.70;4.18;;;11.70;75.30;;;;;;5049186;28;20064;-75
2022/02/15 04:26:35;;;;;;;10.65;4.75;;;11.70;75.30;;;;;;5031058;28;20025;-74
2022/02/15 04:29:00;;;;;;;9.30;4.70;;;11.70;75.40;;;;;;5031656;28;20040;-75
2022/02/15 04:31:26;;;;;;;10.43;4.85;;;11.70;75.40;;;;;;5046730;28;20079;-74
2022/02/15 04:33:51;;;;;;;10.10;4.95;;;11.70;75.40;;;;;;5043796;28;20025;-74
2022/02/15 04:36:17;;;;;;;12.48;4.63;;;11.70;75.40;;;;;;5030878;28;20029;-73
2022/02/15 04:38:42;;;;;;;9.40;4.57;;;11.60;75.40;;;;;;5030310;28;20601;-74
2022/02/15 04:41:08;;;;;;;7.40;4.30;;;11.60;75.40;;;;;;5030640;28;20115;-74
2022/02/15 04:43:33;;;;;;;7.97;4.60;;;11.70;75.40;;;;;;5034989;28;20043;-75
2022/02/15 04:45:59;;;;;;;8.60;4.90;;;11.70;75.40;;;;;;5030737;28;20402;-75
2022/02/15 04:48:24;;;;;;;8.70;4.78;;;11.60;75.50;;;;;;5030767;28;20064;-76
2022/02/15 04:50:50;;;;;;;8.63;4.80;;;11.60;75.50;;;;;;5048664;28;20483;-74
2022/02/15 04:53:16;;;;;;;9.05;4.88;;;11.60;75.50;;;;;;5048795;28;20371;-73
2022/02/15 04:55:42;;;;;;;7.30;4.90;;;11.60;75.50;;;;;;5048649;28;20478;-74
2022/02/15 04:58:08;;;;;;;8.88;4.90;;;11.70;75.60;;;;;;5030681;28;20119;-74
2022/02/15 05:00:34;;;;;;;8.85;4.80;;;11.60;75.60;;;;;;5029715;28;20251;-73
2022/02/15 05:02:59;;;;;;;8.02;4.75;;;11.60;75.50;;;;;;5030717;28;20116;-75
2022/02/15 05:05:25;;;;;;;8.07;4.47;;;11.60;75.50;;;;;;5030166;28;20037;-74
2022/02/15 05:07:50;;;;;;;8.68;4.72;;;11.60;75.50;;;;;;5048495;28;20021;-75
2022/02/15 05:10:16;;;;;;;9.55;4.70;;;11.60;75.50;;;;;;5047815;28;20074;-74
2022/02/15 05:12:41;;;;;;;8.35;4.53;;;11.60;75.50;;;;;;5048437;28;20025;-75
2022/02/15 05:15:09;;;;;;;8.93;4.50;;;11.70;75.60;;;;;;5040870;28;20027;-73
2022/02/15 05:17:43;;;;;;;8.35;4.80;;;11.60;75.60;;;;;;5042311;28;20383;-75
2022/02/15 05:20:14;;;;;;;7.18;4.63;;;11.60;75.70;;;;;;5037168;28;20032;-74
2022/02/15 05:22:40;;;;;;;9.27;4.75;;;11.60;75.70;;;;;;5048066;28;20032;-74
2022/02/15 05:25:06;;;;;;;6.65;4.35;;;11.60;75.60;;;;;;5030413;28;20493;-75
2022/02/15 05:27:31;;;;;;;8.48;4.93;;;11.60;75.60;;;;;;5029839;28;20406;-75
2022/02/15 05:29:57;;;;;;;7.75;4.70;;;11.60;75.60;;;;;;5029853;28;20033;-75
2022/02/15 05:32:22;;;;;;;10.00;4.68;;;11.60;75.60;;;;;;5048006;28;20083;-74
2022/02/15 05:34:48;;;;;;;7.65;4.70;;;11.60;75.60;;;;;;5048685;28;20449;-75
2022/02/15 05:37:14;;;;;;;8.82;4.57;;;11.60;75.60;;;;;;5028137;28;20027;-72
2022/02/15 05:39:39;;;;;;;8.77;4.80;;;11.60;75.70;;;;;;5019181;28;20142;-73
2022/02/15 05:42:06;;;;;;;8.77;4.72;;;11.60;75.50;;;;;;5067734;28;20035;-74
2022/02/15 05:44:32;;;;;;;7.75;4.50;;;11.60;75.60;;;;;;5030332;28;20029;-74
2022/02/15 05:46:57;;;;;;;7.15;4.47;;;11.60;75.60;;;;;;5030135;28;20039;-74
2022/02/15 05:49:23;;;;;;;6.63;4.20;;;11.60;75.60;;;;;;5029861;28;20117;-74
2022/02/15 05:51:48;;;;;;;6.78;3.95;;;11.60;75.60;;;;;;5048113;28;20064;-75
2022/02/15 05:54:14;;;;;;;6.80;4.22;;;11.60;75.50;;;;;;5027979;28;20061;-75
2022/02/15 05:56:39;;;;;;;6.45;4.28;;;11.60;75.60;;;;;;5039328;28;20063;-73
2022/02/15 05:59:05;;;;;;;6.45;4.47;;;11.60;75.70;;;;;;5028801;28;20040;-74
2022/02/15 06:01:30;;;;;;;6.95;4.78;;;11.60;75.80;;;;;;5031395;28;20096;-75
2022/02/15 06:04:11;;;;;;;6.97;4.50;;;11.60;75.60;;;;;;5031828;28;20032;-75
2022/02/15 06:06:39;;;;;;;7.65;4.20;;;11.60;75.50;;;;;;5035225;28;20133;-74
2022/02/15 06:09:05;;;;;;;7.00;4.30;;;11.60;75.50;;;;;;5031245;28;20043;-76
2022/02/15 06:11:30;;;;;;;9.73;4.50;;;11.60;75.60;;;;;;5031760;28;20124;-75
2022/02/15 06:13:57;;;;;;;8.57;4.50;;;11.60;75.40;;;;;;5049623;28;20025;-75
2022/02/15 06:16:23;;;;;;;7.07;4.63;;;11.60;75.50;;;;;;5031167;28;20563;-75
2022/02/15 06:18:50;;;;;;;8.00;4.72;;;11.60;75.40;;;;;;5044700;28;20037;-76
2022/02/15 06:21:17;;;;;;;7.72;4.20;;;11.60;75.50;;;;;;5050391;28;20032;-77
2022/02/15 06:23:42;;;;;;;10.63;4.93;;;11.60;75.50;;;;;;5032689;28;20111;-75
2022/02/15 06:26:08;;;;;;;6.95;4.20;;;11.60;75.60;;;;;;5034884;28;20131;-77
2022/02/15 06:28:34;;;;;;;7.65;4.50;;;11.60;75.50;;;;;;5055580;22;20758;-81
2022/02/15 06:31:00;;;;;;;31.02;6.53;;;11.60;75.30;;;;;;5036109;28;20025;-80
2022/02/15 06:33:25;;;;;;;23.15;5.35;;;11.60;75.60;;;;;;5054008;28;20029;-74
2022/02/15 06:35:51;;;;;;;12.18;5.03;;;11.60;75.80;;;;;;5036459;28;20032;-77
2022/02/15 06:38:17;;;;;;;13.43;5.18;;;11.60;75.70;;;;;;5036327;28;20059;-76
2022/02/15 06:40:42;;;;;;;12.80;4.75;;;11.50;75.90;;;;;;5035687;28;20115;-75
2022/02/15 06:43:10;;;;;;;13.52;5.07;;;11.50;75.90;;;;;;5053469;28;20035;-76
2022/02/15 06:45:36;;;;;;;9.00;4.70;;;11.50;75.90;;;;;;5053381;28;20048;-76
2022/02/15 06:48:01;;;;;;;8.27;4.43;;;11.50;75.90;;;;;;5053708;28;20028;-76
2022/02/15 06:50:27;;;;;;;9.00;4.55;;;11.50;76.00;;;;;;5035538;28;20036;-76
2022/02/15 06:52:53;;;;;;;9.00;4.75;;;11.50;76.10;;;;;;5053870;28;20021;-76
2022/02/15 06:55:18;;;;;;;7.55;4.75;;;11.50;76.10;;;;;;5035677;28;20056;-77
2022/02/15 06:57:44;;;;;;;8.80;4.93;;;11.50;76.10;;;;;;5035602;28;20028;-76
2022/02/15 07:00:10;;;;;;;9.43;4.97;;;11.50;76.20;;;;;;5053269;28;20036;-78
2022/02/15 07:02:36;;;;;;;10.65;5.53;;;11.40;76.20;;;;;;5035394;28;20497;-76
2022/02/15 07:05:02;;;;;;;8.60;4.95;;;11.40;76.20;;;;;;5035328;28;20406;-76
2022/02/15 07:07:28;;;;;;;10.18;4.90;;;11.40;76.10;;;;;;5035100;28;20032;-77
2022/02/15 07:09:53;;;;;;;8.73;5.32;;;11.40;76.10;;;;;;5034763;28;20033;-76
2022/02/15 07:12:20;;;;;;;8.90;5.20;;;11.40;76.10;;;;;;5052914;28;20100;-76
2022/02/15 07:14:46;;;;;;;8.60;5.05;;;11.40;76.20;;;;;;5034878;28;20115;-77
2022/02/15 07:17:11;;;;;;;9.38;5.10;;;11.40;76.20;;;;;;5035010;28;20449;-76
2022/02/15 07:19:37;;;;;;;8.10;5.10;;;11.40;76.20;;;;;;5035008;28;20021;-76
2022/02/15 07:22:03;;;;;;;7.70;5.20;;;11.40;76.30;;;;;;5035003;28;20017;-76
2022/02/15 07:24:29;;;;;;;9.00;5.10;;;11.40;76.30;;;;;;5034752;28;20036;-76
2022/02/15 07:26:55;;;;;;;9.48;5.50;;;11.40;76.40;;;;;;5034882;28;20028;-76
2022/02/15 07:29:21;;;;;;;7.93;5.05;;;11.40;76.30;;;;;;5052953;28;20087;-77
2022/02/15 07:31:49;;;;;;;8.07;5.85;;;11.40;76.40;;;;;;5052864;28;20025;-76
2022/02/15 07:34:15;;;;;;;8.43;5.22;;;11.40;76.40;;;;;;5052989;28;20020;-76
2022/02/15 07:36:40;;;;;;;7.80;5.00;;;11.40;76.40;;;;;;5052910;28;20083;-75
2022/02/15 07:39:06;;;;;;;8.13;5.28;;;11.40;76.40;;;;;;5052419;28;20104;-76
2022/02/15 07:41:32;;;;;;;8.63;5.15;;;11.40;76.40;;;;;;5034955;28;20025;-76
2022/02/15 07:43:58;;;;;;;6.80;4.85;;;11.40;76.50;;;;;;5034862;28;20036;-76
2022/02/15 07:46:24;;;;;;;7.35;5.07;;;11.40;76.40;;;;;;5034768;28;20104;-76
2022/02/15 07:48:50;;;;;;;7.97;5.15;;;11.40;76.40;;;;;;5052958;28;20029;-76
2022/02/15 07:51:17;;;;;;;8.57;5.18;;;11.30;76.40;;;;;;5052928;28;20017;-76
2022/02/15 07:53:43;;;;;;;8.45;5.13;;;11.40;76.50;;;;;;5052732;28;20487;-78
2022/02/15 07:56:09;;;;;;;8.30;5.57;;;11.40;76.50;;;;;;5052724;28;20044;-76
2022/02/15 07:58:35;;;;;;;7.72;5.40;;;11.40;76.50;;;;;;5034908;28;20036;-76
2022/02/15 08:01:00;;;;;;;8.63;5.30;;;11.30;76.40;;;;;;5034813;28;20029;-76
2022/02/15 08:03:26;;;;;;;8.48;5.32;;;11.40;76.50;;;;;;5052748;28;20579;-76
2022/02/15 08:05:51;;;;;;;8.07;5.40;;;11.40;76.60;;;;;;5034945;28;20025;-76
2022/02/15 08:08:17;;;;;;;7.45;4.90;;;11.40;76.60;;;;;;5052558;28;20023;-77
2022/02/15 08:10:44;;;;;;;8.75;5.85;;;11.40;76.60;;;;;;5052612;28;20044;-76
2022/02/15 08:13:10;;;;;;;9.77;5.22;;;11.40;76.60;;;;;;5052651;28;20021;-76
2022/02/15 08:15:36;;;;;;;13.77;5.95;;;11.40;76.50;;;;;;5035071;28;20025;-77
2022/02/15 08:18:03;;;;;;;9.73;6.07;;;11.40;76.50;;;;;;5052660;28;20013;-75
2022/02/15 08:20:33;;;;;;;13.40;5.30;;;11.40;76.50;;;;;;5034595;28;20123;-76
2022/02/15 08:22:59;;;;;;;13.50;5.72;;;11.40;76.40;;;;;;5034680;28;20025;-76
2022/02/15 08:25:25;;;;;;;9.82;5.35;;;11.40;76.40;;;;;;5052814;28;20052;-75
2022/02/15 08:27:51;;;;;;;11.57;5.70;;;11.40;76.50;;;;;;5052180;28;20028;-76
2022/02/15 08:30:17;;;;;;;10.35;5.53;;;11.40;76.50;;;;;;5052189;28;20021;-76
2022/02/15 08:32:43;;;;;;;12.25;6.10;;;11.40;76.50;;;;;;5034664;28;20029;-76
2022/02/15 08:35:09;;;;;;;13.20;5.75;;;11.40;76.60;;;;;;5052617;28;20509;-77
2022/02/15 08:37:35;;;;;;;13.15;6.22;;;11.40;76.60;;;;;;5052468;28;20029;-76
2022/02/15 08:40:04;;;;;;;10.05;5.97;;;11.40;76.60;;;;;;5035171;28;20021;-76
2022/02/15 08:42:30;;;;;;;10.45;5.97;;;11.40;76.60;;;;;;5055814;28;20072;-76
2022/02/15 08:44:56;;;;;;;10.73;6.45;;;11.40;76.70;;;;;;5056588;28;20040;-75
2022/02/15 08:47:22;;;;;;;9.85;6.40;;;11.40;76.70;;;;;;5038070;28;20108;-75
2022/02/15 08:49:51;;;;;;;11.13;6.10;;;11.30;76.70;;;;;;5038052;28;20461;-76
2022/02/15 08:52:23;;;;;;;12.43;6.30;;;11.30;76.60;;;;;;5055844;28;20024;-77
2022/02/15 08:54:54;;;;;;;9.65;6.65;;;11.40;76.80;;;;;;5038033;28;20021;-76
2022/02/15 08:57:20;;;;;;;10.40;6.78;;;11.40;76.80;;;;;;5055766;28;20040;-76
2022/02/15 08:59:45;;;;;;;11.45;6.85;;;11.40;76.80;;;;;;5037913;28;20041;-76
2022/02/15 09:02:11;;;;;;;11.98;7.03;;;11.40;76.90;;;;;;5038096;28;20084;-76
2022/02/15 09:04:38;;;;;;;10.95;6.28;;;11.40;77.00;;;;;;5038087;28;20037;-76
2022/02/15 09:07:04;;;;;;;12.13;7.00;;;11.40;76.90;;;;;;5037714;28;20025;-76
2022/02/15 09:09:30;;;;;;;10.48;7.10;;;11.40;76.90;;;;;;5055695;28;20021;-77
2022/02/15 09:11:56;;;;;;;11.98;7.65;;;11.40;77.00;;;;;;5055677;28;20025;-76
2022/02/15 09:14:21;;;;;;;12.63;7.35;;;11.40;77.10;;;;;;5037804;28;20053;-76
2022/02/15 09:16:47;;;;;;;12.25;7.40;;;11.40;77.10;;;;;;5055391;28;20021;-76
2022/02/15 09:19:13;;;;;;;10.80;7.63;;;11.30;77.00;;;;;;5037782;28;20083;-75
2022/02/15 09:21:39;;;;;;;10.40;7.43;;;11.40;77.10;;;;;;5037513;28;20053;-76
2022/02/15 09:24:05;;;;;;;11.80;7.88;;;11.40;77.10;;;;;;5037394;28;20031;-76
2022/02/15 09:26:31;;;;;;;12.68;7.75;;;11.40;77.10;;;;;;5037272;28;20440;-77
2022/02/15 09:28:57;;;;;;;11.05;7.95;;;11.40;77.10;;;;;;5055056;28;20029;-76
2022/02/15 09:31:24;;;;;;;10.93;7.80;;;11.40;77.20;;;;;;5055308;28;20029;-76
2022/02/15 09:33:52;;;;;;;11.52;8.20;;;11.40;77.20;;;;;;5037424;28;20091;-77
2022/02/15 09:36:25;;;;;;;11.18;7.88;;;11.40;77.20;;;;;;5037225;28;20029;-77
2022/02/15 09:38:50;;;;;;;12.38;8.80;;;11.40;77.30;;;;;;5037024;28;20074;-75
2022/02/15 09:41:16;;;;;;;14.50;8.93;;;11.40;77.10;;;;;;5054892;28;20021;-77
2022/02/15 09:43:44;;;;;;;12.18;8.90;;;11.40;77.10;;;;;;5036970;28;20024;-77
2022/02/15 09:46:13;;;;;;;13.05;8.85;;;11.40;77.30;;;;;;5055131;28;20111;-76
2022/02/15 09:48:40;;;;;;;12.23;8.88;;;11.40;77.30;;;;;;5036819;28;20070;-80
2022/02/15 09:51:07;;;;;;;12.75;9.20;;;11.40;77.30;;;;;;5036455;28;20508;-76
2022/02/15 09:53:33;;;;;;;12.75;9.27;;;11.40;77.30;;;;;;5036560;28;20032;-76
2022/02/15 09:55:58;;;;;;;13.57;9.93;;;11.40;77.20;;;;;;5054977;28;20414;-76
2022/02/15 09:58:24;;;;;;;13.07;9.55;;;11.40;77.40;;;;;;5036593;28;20029;-76
2022/02/15 10:00:51;;;;;;;13.52;10.23;;;11.40;77.30;;;;;;5036637;28;20025;-76
2022/02/15 10:03:17;;;;;;;13.05;10.13;;;11.40;77.40;;;;;;5054469;28;20025;-76
2022/02/15 10:05:51;;;;;;;14.90;10.75;;;11.40;77.40;;;;;;5054592;28;20036;-76
2022/02/15 10:08:35;;;;;;;15.38;10.43;;;11.40;77.50;;;;;;5036443;28;20021;-77
2022/02/15 10:11:13;;;;;;;14.77;10.40;;;11.40;77.40;;;;;;5038715;28;20044;-77
2022/02/15 10:13:44;;;;;;;15.32;10.77;;;11.40;77.40;;;;;;5056316;28;20059;-77
2022/02/15 10:16:09;;;;;;;15.25;10.57;;;11.40;77.50;;;;;;5038369;28;20394;-76
2022/02/15 10:18:37;;;;;;;12.85;10.20;;;11.40;77.50;;;;;;5037884;28;20029;-77
2022/02/15 10:21:03;;;;;;;13.45;9.88;;;11.40;77.60;;;;;;5055896;28;20113;-77
2022/02/15 10:23:31;;;;;;;13.45;10.25;;;11.40;77.60;;;;;;5038282;28;20461;-76
2022/02/15 10:25:57;;;;;;;15.70;10.30;;;11.40;77.50;;;;;;5037690;28;20440;-78
2022/02/15 10:28:28;;;;;;;15.02;11.32;;;11.40;77.70;;;;;;5035405;28;20043;-78
2022/02/15 10:31:02;;;;;;;18.13;10.57;;;11.40;77.40;;;;;;5054980;28;20075;-77
2022/02/15 10:33:34;;;;;;;15.65;11.35;;;11.40;77.70;;;;;;5073931;28;20428;-78
2022/02/15 10:36:01;;;;;;;13.93;10.60;;;11.40;77.60;;;;;;5056359;28;20028;-77
2022/02/15 10:38:34;;;;;;;14.35;10.82;;;11.40;77.60;;;;;;5056229;28;20035;-78
2022/02/15 10:41:06;;;;;;;15.38;11.20;;;11.40;77.70;;;;;;5056445;28;20046;-78
2022/02/15 10:43:48;;;;;;;16.17;11.63;;;11.40;77.60;;;;;;5056481;28;20028;-80
2022/02/15 10:46:22;;;;;;;15.98;11.50;;;11.40;77.60;;;;;;5073701;28;20405;-77
2022/02/15 10:48:48;;;;;;;16.05;11.23;;;11.40;77.60;;;;;;5055551;28;20116;-77
2022/02/15 10:51:14;;;;;;;16.27;11.10;;;11.40;77.50;;;;;;5073704;28;20113;-77
2022/02/15 10:53:40;;;;;;;13.55;11.05;;;11.40;77.60;;;;;;5055266;28;20508;-77
2022/02/15 10:56:06;;;;;;;15.13;11.90;;;11.40;77.60;;;;;;5072935;28;20021;-78
2022/02/15 10:58:33;;;;;;;15.30;11.50;;;11.40;77.70;;;;;;5054964;28;20020;-78
2022/02/15 11:01:10;;;;;;;17.63;11.48;;;11.40;77.70;;;;;;5072776;28;20040;-77
2022/02/15 11:03:38;;;;;;;16.58;12.05;;;11.40;77.80;;;;;;5054487;28;20119;-78
2022/02/15 11:06:05;;;;;;;14.93;11.90;;;11.40;77.80;;;;;;5072371;28;20028;-78
2022/02/15 11:08:34;;;;;;;15.85;11.60;;;11.40;77.80;;;;;;5072828;28;20029;-78
2022/02/15 11:11:16;;;;;;;15.57;11.18;;;11.40;77.70;;;;;;5054653;28;20652;-77
2022/02/15 11:13:43;;;;;;;14.35;11.40;;;11.40;77.70;;;;;;5047814;28;20027;-76
2022/02/15 11:16:13;;;;;;;16.02;11.88;;;11.40;77.70;;;;;;5043183;28;20063;-79
2022/02/15 11:18:40;;;;;;;15.88;12.02;;;11.40;77.70;;;;;;5048666;28;20505;-78
2022/02/15 11:21:07;;;;;;;13.95;11.70;;;11.40;77.70;;;;;;5032649;28;20482;-75
2022/02/15 11:23:37;;;;;;;16.65;11.60;;;11.40;78.20;;;;;;5032534;28;20044;-76
2022/02/15 11:26:17;;;;;;;16.55;11.55;;;11.40;77.80;;;;;;5030920;28;20029;-76
2022/02/15 11:28:51;;;;;;;15.70;11.80;;;11.40;77.80;;;;;;5050238;28;20122;-76
2022/02/15 11:31:31;;;;;;;16.10;11.48;;;11.40;77.70;;;;;;5032839;28;20033;-80
2022/02/15 11:34:00;;;;;;;14.20;11.70;;;11.50;77.60;;;;;;5033303;28;20129;-79
2022/02/15 11:36:26;;;;;;;14.45;11.27;;;11.50;77.50;;;;;;5033013;28;20033;-78
2022/02/15 11:39:04;;;;;;;15.30;12.30;;;11.50;77.60;;;;;;5032730;28;20490;-76
2022/02/15 11:41:41;;;;;;;15.40;12.02;;;11.50;77.70;;;;;;5032646;28;20028;-79
2022/02/15 11:44:06;;;;;;;15.88;12.98;;;11.50;77.70;;;;;;5050845;28;20021;-77
2022/02/15 11:46:43;;;;;;;15.00;11.98;;;11.50;77.70;;;;;;5032766;28;20149;-77
2022/02/15 11:49:18;;;;;;;15.85;11.93;;;11.50;77.70;;;;;;5050909;28;20032;-78
2022/02/15 11:51:46;;;;;;;16.52;12.07;;;11.50;77.80;;;;;;5051253;28;20040;-77
2022/02/15 11:54:12;;;;;;;14.43;11.15;;;11.40;77.70;;;;;;5033919;28;20025;-76
2022/02/15 11:56:39;;;;;;;15.48;11.90;;;11.40;77.80;;;;;;5033445;28;20044;-77
2022/02/15 11:59:19;;;;;;;14.48;11.85;;;11.40;77.80;;;;;;5033614;28;20025;-77
2022/02/15 12:01:58;;;;;;;14.50;10.98;;;11.40;77.80;;;;;;5033659;28;20029;-77
2022/02/15 12:04:23;;;;;;;15.02;11.68;;;11.40;77.80;;;;;;5035522;28;20028;-77
2022/02/15 12:06:49;;;;;;;14.50;11.10;;;11.40;77.80;;;;;;5035329;28;20044;-76
2022/02/15 12:09:16;;;;;;;14.80;10.30;;;11.40;77.80;;;;;;5051332;28;20112;-77
2022/02/15 12:11:44;;;;;;;14.50;10.85;;;11.50;77.70;;;;;;5053195;28;20025;-79
2022/02/15 12:14:15;;;;;;;17.63;12.07;;;11.50;77.80;;;;;;5053128;28;20029;-76
2022/02/15 12:16:51;;;;;;;17.55;11.20;;;11.50;77.80;;;;;;5056945;28;20028;-76
2022/02/15 12:19:30;;;;;;;16.15;10.98;;;11.40;77.70;;;;;;5038845;28;20033;-76
2022/02/15 12:21:59;;;;;;;18.88;11.75;;;11.40;77.80;;;;;;5038038;28;20116;-77
2022/02/15 12:24:26;;;;;;;15.93;11.20;;;11.40;77.90;;;;;;5056394;28;20553;-76
2022/02/15 12:29:23;;;;;;;18.17;10.88;;;11.40;77.70;;;;;;5073107;28;20051;-78
2022/02/15 12:31:56;;;;;;;18.88;11.52;;;11.40;77.80;;;;;;5057524;28;20115;-77
2022/02/15 12:34:22;;;;;;;17.25;10.90;;;11.40;77.80;;;;;;5075108;28;20070;-77
2022/02/15 12:36:48;;;;;;;21.90;11.80;;;11.40;77.60;;;;;;5057369;28;20039;-77
2022/02/15 12:39:14;;;;;;;18.27;11.30;;;11.40;77.60;;;;;;5074870;28;20112;-77
2022/02/15 12:41:42;;;;;;;20.05;11.45;;;11.40;77.60;;;;;;5075160;28;20123;-77
2022/02/15 12:44:08;;;;;;;19.80;10.75;;;11.40;77.70;;;;;;5074977;28;20021;-77
2022/02/15 12:46:35;;;;;;;18.75;11.10;;;11.40;77.70;;;;;;5056968;28;20078;-77